Sidi Ifni, Morocco
Current Conditions -  °F | °C
As of 1:00 PM on Thursday 30 Oct 2014 (Local Time) from GMAG Reporting Station
Clear Clear  
Wind Chill: 30°   Ceiling: Unl
Heat Index: 30°   Visibility: 1.2mi
Dew Point:   Wind: 28mph
Humidity: 18%   Direction: 120°ESE
Pressure: 29.85"   Gusts: 40mph
Location:  29.38°N, 10.18°W
Report Text: GMAG 301200Z 12024G35KT 2000 NSC 30/03 Q1011 NOSIG
Loading
Personal Weather Stations






























Interactive Weather Map
Tropical Storm Tracking
New forecast layout! Learn more

10-Day Weather Forecast

Advertisements
Track Severe Weather on mobile